| time (UTC) | temp C | wind direction | speed KPH | gust KPH | rain 1hr cm | rain 24hr cm | rain mn cm | humidity % | barometer mb |
| 20260510190758 | 16 | 79 | 4.8 | 4.8 | 0.00 | 0.00 | 0.00 | 52 | 1018.6 |
| 20260510190254 | 16 | 71 | 0.0 | 9.7 | 0.00 | 0.00 | 0.00 | 51 | 1018.6 |
| 20260510185750 | 17 | 56 | 4.8 | 8.0 | 0.00 | 0.00 | 0.00 | 48 | 1018.5 |
| 20260510185249 | 17 | 63 | 8.0 | 8.0 | 0.00 | 0.00 | 0.00 | 50 | 1018.4 |
| 20260510184746 | 16 | 48 | 3.2 | 6.4 | 0.00 | 0.00 | 0.00 | 48 | 1018.3 |
| 20260510184243 | 16 | 47 | 4.8 | 9.7 | 0.00 | 0.00 | 0.00 | 50 | 1018.5 |
| 20260510183737 | 17 | 90 | 0.0 | 11.3 | 0.00 | 0.00 | 0.00 | 55 | 1018.5 |
| 20260510183232 | 15 | 5 | 1.6 | 6.4 | 0.00 | 0.00 | 0.00 | 53 | 1018.5 |
| 20260510182729 | 15 | 39 | 9.7 | 16.1 | 0.00 | 0.00 | 0.00 | 52 | 1018.4 |
| 20260510182225 | 16 | 48 | 0.0 | 11.3 | 0.00 | 0.00 | 0.00 | 55 | 1018.3 |
| 20260510181722 | 16 | 25 | 6.4 | 12.9 | 0.00 | 0.00 | 0.00 | 55 | 1018.3 |
| 20260510181219 | 15 | 143 | 0.0 | 8.0 | 0.00 | 0.00 | 0.00 | 57 | 1017.9 |
| 20260510180714 | 16 | 0 | 1.6 | 8.0 | 0.00 | 0.00 | 0.00 | 55 | 1017.8 |
| 20260510180213 | 16 | 147 | 0.0 | 4.8 | 0.00 | 0.00 | 0.00 | 52 | 1018.0 |
| 20260510175708 | 16 | 37 | 6.4 | 8.0 | 0.00 | 0.00 | 0.00 | 52 | 1018.0 |
| 20260510175204 | 17 | 71 | 8.0 | 8.0 | 0.00 | 0.00 | 0.00 | 56 | 1017.9 |
| 20260510174702 | 15 | 41 | 3.2 | 8.0 | 0.00 | 0.00 | 0.00 | 54 | 1018.0 |
| 20260510174159 | 17 | 23 | 3.2 | 4.8 | 0.00 | 0.00 | 0.00 | 56 | 1018.0 |
| 20260510173655 | 16 | 108 | 4.8 | 8.0 | 0.00 | 0.00 | 0.00 | 58 | 1018.1 |
| 20260510173151 | 16 | 64 | 6.4 | 8.0 | 0.00 | 0.00 | 0.00 | 52 | 1018.1 |
| 20260510172646 | 16 | 116 | 9.7 | 9.7 | 0.00 | 0.00 | 0.00 | 61 | 1018.2 |
| 20260510172143 | 15 | 90 | 6.4 | 8.0 | 0.00 | 0.00 | 0.00 | 59 | 1017.9 |
| 20260510171640 | 16 | 215 | 0.0 | 3.2 | 0.00 | 0.00 | 0.00 | 61 | 1018.2 |
| 20260510171137 | 16 | 79 | 4.8 | 8.0 | 0.00 | 0.00 | 0.00 | 63 | 1018.4 |
| 20260510170633 | 16 | 102 | 3.2 | 4.8 | 0.00 | 0.00 | 0.00 | 59 | 1018.3 |
| 20260510170130 | 15 | 48 | 6.4 | 12.9 | 0.00 | 0.00 | 0.00 | 57 | 1018.4 |
| 20260510165626 | 16 | 82 | 0.0 | 6.4 | 0.00 | 0.00 | 0.00 | 59 | 1018.2 |
| 20260510165121 | 15 | 36 | 0.0 | 9.7 | 0.00 | 0.00 | 0.00 | 64 | 1018.2 |
| 20260510164620 | 15 | 23 | 0.0 | 8.0 | 0.00 | 0.00 | 0.00 | 63 | 1018.2 |
| 20260510164116 | 15 | 11 | 6.4 | 11.3 | 0.00 | 0.00 | 0.00 | 61 | 1018.1 |
| 20260510163611 | 15 | 88 | 9.7 | 14.5 | 0.00 | 0.00 | 0.00 | 64 | 1017.9 |
| 20260510163108 | 15 | 77 | 0.0 | 6.4 | 0.00 | 0.00 | 0.00 | 61 | 1018.0 |
| 20260510162602 | 15 | 66 | 0.0 | 4.8 | 0.00 | 0.00 | 0.00 | 62 | 1017.9 |
| 20260510162059 | 15 | 75 | 4.8 | 6.4 | 0.00 | 0.00 | 0.00 | 61 | 1017.9 |
| 20260510161555 | 15 | 276 | 0.0 | 3.2 | 0.00 | 0.00 | 0.00 | 57 | 1017.9 |
| 20260510161052 | 15 | 352 | 0.0 | 6.4 | 0.00 | 0.00 | 0.00 | 62 | 1017.9 |
| 20260510160549 | 15 | 324 | 3.2 | 6.4 | 0.00 | 0.00 | 0.00 | 62 | 1017.9 |
| 20260510160048 | 15 | 131 | 0.0 | 6.4 | 0.00 | 0.00 | 0.00 | 61 | 1017.7 |
| 20260510155545 | 15 | 82 | 4.8 | 4.8 | 0.00 | 0.00 | 0.00 | 65 | 1017.5 |
| 20260510155042 | 14 | 312 | 0.0 | 8.0 | 0.00 | 0.00 | 0.00 | 63 | 1017.6 |
| 20260510154537 | 15 | 186 | 0.0 | 4.8 | 0.00 | 0.00 | 0.00 | 64 | 1017.6 |
| 20260510154033 | 14 | 41 | 6.4 | 6.4 | 0.00 | 0.00 | 0.00 | 64 | 1017.6 |
| 20260510153528 | 13 | 72 | 4.8 | 12.9 | 0.00 | 0.00 | 0.00 | 70 | 1017.6 |
| 20260510153025 | 13 | 60 | 4.8 | 4.8 | 0.00 | 0.00 | 0.00 | 70 | 1017.6 |
| 20260510152522 | 13 | 114 | 0.0 | 3.2 | 0.00 | 0.00 | 0.00 | 72 | 1017.6 |
| 20260510152018 | 13 | 45 | 3.2 | 6.4 | 0.00 | 0.00 | 0.00 | 73 | 1017.6 |
| 20260510151515 | 12 | 341 | 3.2 | 8.0 | 0.00 | 0.00 | 0.00 | 73 | 1017.7 |
| 20260510151013 | 12 | 90 | 3.2 | 8.0 | 0.00 | 0.00 | 0.00 | 74 | 1017.3 |
| 20260510150507 | 13 | 90 | 1.6 | 3.2 | 0.00 | 0.00 | 0.00 | 73 | 1017.3 |
| 20260510150004 | 13 | 140 | 0.0 | 3.2 | 0.00 | 0.00 | 0.00 | 75 | 1017.6 |
| 20260510145501 | 13 | 246 | 0.0 | 3.2 | 0.00 | 0.00 | 0.00 | 75 | 1017.5 |
| 20260510144956 | 12 | 54 | 0.0 | 6.4 | 0.00 | 0.00 | 0.00 | 77 | 1017.3 |
| 20260510144454 | 11 | 63 | 3.2 | 3.2 | 0.00 | 0.00 | 0.00 | 82 | 1017.3 |
| 20260510143949 | 11 | 27 | 4.8 | 6.4 | 0.00 | 0.00 | 0.00 | 82 | 1017.0 |
| 20260510143445 | 11 | 180 | 0.0 | 3.2 | 0.00 | 0.00 | 0.00 | 82 | 1016.8 |
| 20260510142942 | 11 | 90 | 1.6 | 4.8 | 0.00 | 0.00 | 0.00 | 82 | 1016.9 |
| 20260510142439 | 11 | 57 | 1.6 | 6.4 | 0.00 | 0.00 | 0.00 | 84 | 1016.8 |
| 20260510141935 | 11 | 57 | 3.2 | 3.2 | 0.00 | 0.00 | 0.00 | 85 | 1016.5 |
| 20260510141432 | 10 | 69 | 0.0 | 3.2 | 0.00 | 0.00 | 0.00 | 85 | 1016.5 |
| 20260510140929 | 10 | 98 | 3.2 | 6.4 | 0.00 | 0.00 | 0.00 | 85 | 1016.9 |
| 20260510140420 | 10 | 124 | 3.2 | 6.4 | 0.00 | 0.00 | 0.00 | 85 | 1016.7 |
| 20260510135919 | 10 | 86 | 4.8 | 4.8 | 0.00 | 0.00 | 0.00 | 86 | 1016.7 |
| 20260510135415 | 10 | 96 | 3.2 | 3.2 | 0.00 | 0.00 | 0.00 | 85 | 1016.3 |
| 20260510134913 | 10 | 29 | 1.6 | 3.2 | 0.00 | 0.00 | 0.00 | 86 | 1016.3 |
| 20260510134409 | 10 | 0 | 0.0 | 3.2 | 0.00 | 0.00 | 0.00 | 86 | 1016.3 |
| 20260510133905 | 10 | 126 | 0.0 | 4.8 | 0.00 | 0.00 | 0.00 | 87 | 1016.4 |
| 20260510133402 | 10 | 49 | 0.0 | 3.2 | 0.00 | 0.00 | 0.00 | 88 | 1016.3 |
| 20260510132857 | 10 | 114 | 0.0 | 3.2 | 0.00 | 0.00 | 0.00 | 88 | 1016.4 |
| 20260510132356 | 10 | 63 | 1.6 | 3.2 | 0.00 | 0.00 | 0.00 | 88 | 1016.2 |
| 20260510131852 | 10 | 99 | 0.0 | 3.2 | 0.00 | 0.00 | 0.00 | 88 | 1016.0 |
| 20260510131350 | 10 | 0 | 0.0 | 1.6 | 0.00 | 0.00 | 0.00 | 88 | 1016.1 |
| 20260510130846 | 10 | 77 | 1.6 | 6.4 | 0.00 | 0.00 | 0.00 | 89 | 1016.0 |
| 20260510130343 | 10 | 106 | 0.0 | 1.6 | 0.00 | 0.00 | 0.00 | 90 | 1015.9 |
| 20260510125840 | 10 | 55 | 3.2 | 6.4 | 0.00 | 0.00 | 0.00 | 90 | 1016.0 |
| 20260510125336 | 10 | 83 | 1.6 | 3.2 | 0.00 | 0.00 | 0.00 | 90 | 1016.1 |
| 20260510124834 | 10 | 33 | 0.0 | 3.2 | 0.00 | 0.00 | 0.00 | 91 | 1016.0 |
| 20260510124330 | 10 | 96 | 0.0 | 3.2 | 0.00 | 0.00 | 0.00 | 91 | 1016.0 |
| 20260510123826 | 10 | 103 | 1.6 | 4.8 | 0.00 | 0.00 | 0.00 | 92 | 1015.9 |
| 20260510123321 | 10 | 98 | 0.0 | 0.0 | 0.00 | 0.00 | 0.00 | 92 | 1015.3 |
| 20260510122818 | 10 | 106 | 0.0 | 3.2 | 0.00 | 0.00 | 0.00 | 92 | 1015.7 |
| 20260510122314 | 10 | 63 | 3.2 | 3.2 | 0.00 | 0.00 | 0.00 | 94 | 1015.5 |
| 20260510121810 | 10 | 98 | 0.0 | 3.2 | 0.00 | 0.00 | 0.00 | 94 | 1015.7 |
| 20260510121308 | 10 | 82 | 0.0 | 3.2 | 0.00 | 0.00 | 0.00 | 94 | 1015.4 |
| 20260510120805 | 10 | 80 | 3.2 | 3.2 | 0.00 | 0.00 | 0.00 | 94 | 1015.2 |
| 20260510120301 | 10 | 49 | 0.0 | 3.2 | 0.00 | 0.00 | 0.00 | 94 | 1015.0 |
| 20260510115757 | 10 | 78 | 1.6 | 3.2 | 0.00 | 0.00 | 0.00 | 95 | 1014.8 |
| 20260510115256 | 10 | 99 | 0.0 | 0.0 | 0.00 | 0.00 | 0.00 | 96 | 1014.6 |
| 20260510114756 | 11 | 99 | 0.0 | 0.0 | 0.00 | 0.00 | 0.00 | 96 | 1014.8 |
| 20260510114253 | 10 | 8 | 0.0 | 0.0 | 0.05 | 0.00 | 0.00 | 95 | 1014.6 |
| 20260510113748 | 10 | 106 | 0.0 | 0.0 | 0.00 | 0.00 | 0.00 | 96 | 1015.0 |
| 20260510113246 | 11 | 76 | 4.8 | 4.8 | 0.00 | 0.00 | 0.00 | 96 | 1014.7 |
| 20260510112741 | 11 | 23 | 0.0 | 1.6 | 0.00 | 0.00 | 0.00 | 96 | 1014.5 |
| 20260510112238 | 11 | 90 | 0.0 | 0.0 | 0.00 | 0.00 | 0.00 | 96 | 1014.5 |
| 20260510111734 | 11 | 114 | 0.0 | 1.6 | 0.00 | 0.00 | 0.00 | 96 | 1014.3 |
| 20260510111232 | 11 | 90 | 0.0 | 1.6 | 0.00 | 0.00 | 0.00 | 96 | 1014.3 |
| 20260510110731 | 11 | 33 | 0.0 | 3.2 | 0.00 | 0.00 | 0.00 | 96 | 1014.2 |
| 20260510110229 | 11 | 82 | 1.6 | 1.6 | 0.00 | 0.00 | 0.00 | 96 | 1013.9 |
| 20260510105728 | 11 | 261 | 0.0 | 0.0 | 0.00 | 0.00 | 0.00 | 96 | 1013.5 |
| 20260510105224 | 11 | 20 | 0.0 | 0.0 | 0.00 | 0.00 | 0.00 | 96 | 1013.7 |
| 20260510104720 | 11 | 71 | 0.0 | 3.2 | 0.00 | 0.00 | 0.00 | 96 | 1013.7 |
| 20260510104218 | 11 | 61 | 3.2 | 3.2 | 0.00 | 0.00 | 0.00 | 97 | 1013.6 |
| 20260510103714 | 11 | 54 | 0.0 | 3.2 | 0.00 | 0.00 | 0.00 | 97 | 1012.9 |
| 20260510103212 | 11 | 90 | 0.0 | 0.0 | 0.00 | 0.00 | 0.00 | 97 | 1013.4 |
| 20260510102711 | 11 | 83 | 1.6 | 1.6 | 0.00 | 0.00 | 0.00 | 96 | 1013.1 |
| 20260510102207 | 11 | 83 | 0.0 | 1.6 | 0.00 | 0.00 | 0.00 | 96 | 1013.1 |
| 20260510101705 | 11 | 106 | 0.0 | 1.6 | 0.00 | 0.00 | 0.00 | 96 | 1012.6 |
| 20260510101203 | 11 | 26 | 0.0 | 0.0 | 0.00 | 0.00 | 0.00 | 96 | 1012.9 |
| 20260510100658 | 11 | 66 | 0.0 | 3.2 | 0.00 | 0.00 | 0.00 | 96 | 1012.7 |
| 20260510100156 | 11 | 26 | 0.0 | 3.2 | 0.00 | 0.00 | 0.00 | 96 | 1012.3 |
| 20260510095652 | 11 | 60 | 3.2 | 3.2 | 0.00 | 0.00 | 0.00 | 96 | 1012.2 |
| 20260510095147 | 11 | 79 | 3.2 | 6.4 | 0.00 | 0.00 | 0.00 | 96 | 1012.2 |
| 20260510094646 | 11 | 106 | 0.0 | 6.4 | 0.00 | 0.00 | 0.00 | 96 | 1012.0 |
| 20260510094142 | 11 | 90 | 0.0 | 4.8 | 0.00 | 0.00 | 0.00 | 96 | 1012.3 |
| 20260510093638 | 11 | 93 | 4.8 | 6.4 | 0.00 | 0.00 | 0.00 | 95 | 1011.9 |
| 20260510093135 | 11 | 77 | 0.0 | 3.2 | 0.00 | 0.00 | 0.00 | 95 | 1011.8 |
| 20260510092632 | 11 | 40 | 3.2 | 3.2 | 0.00 | 0.00 | 0.00 | 95 | 1011.5 |
| 20260510092127 | 11 | 139 | 0.0 | 3.2 | 0.00 | 0.00 | 0.00 | 94 | 1011.6 |
| 20260510091623 | 11 | 90 | 1.6 | 4.8 | 0.00 | 0.00 | 0.00 | 94 | 1011.7 |
| 20260510091120 | 11 | 106 | 3.2 | 3.2 | 0.00 | 0.00 | 0.00 | 94 | 1011.7 |
| 20260510090617 | 11 | 96 | 1.6 | 4.8 | 0.00 | 0.00 | 0.00 | 94 | 1011.3 |
| 20260510090113 | 11 | 84 | 1.6 | 4.8 | 0.00 | 0.00 | 0.00 | 95 | 1011.4 |
| 20260510085608 | 11 | 90 | 0.0 | 3.2 | 0.00 | 0.00 | 0.00 | 96 | 1011.4 |
| 20260510085104 | 11 | 140 | 3.2 | 6.4 | 0.00 | 0.00 | 0.00 | 97 | 1011.4 |
| 20260510084601 | 11 | 100 | 0.0 | 4.8 | 0.00 | 0.00 | 0.00 | 98 | 1011.2 |
| 20260510084057 | 11 | 102 | 1.6 | 3.2 | 0.00 | 0.00 | 0.00 | 98 | 1011.2 |
| 20260510083553 | 11 | 15 | 1.6 | 3.2 | 0.00 | 0.00 | 0.00 | 98 | 1011.0 |
| 20260510083050 | 11 | 109 | 0.0 | 3.2 | 0.00 | 0.00 | 0.00 | 98 | 1011.1 |
| 20260510082547 | 11 | 120 | 0.0 | 0.0 | 0.00 | 0.00 | 0.00 | 98 | 1010.9 |
| 20260510082042 | 11 | 90 | 0.0 | 0.0 | 0.00 | 0.00 | 0.00 | 98 | 1011.1 |
| 20260510081537 | 11 | 90 | 0.0 | 0.0 | 0.00 | 0.00 | 0.00 | 98 | 1010.9 |
| 20260510081033 | 11 | 90 | 0.0 | 1.6 | 0.00 | 0.00 | 0.00 | 98 | 1010.9 |
| 20260510080532 | 11 | 262 | 0.0 | 1.6 | 0.00 | 0.00 | 0.00 | 98 | 1010.7 |
| 20260510080030 | 11 | 106 | 0.0 | 0.0 | 0.00 | 0.00 | 0.00 | 98 | 1010.9 |
| 20260510075527 | 11 | 106 | 0.0 | 0.0 | 0.00 | 0.00 | 0.00 | 98 | 1010.8 |
| 20260510075024 | 11 | 106 | 0.0 | 0.0 | 0.00 | 0.00 | 0.00 | 98 | 1010.6 |
| 20260510074522 | 11 | 106 | 0.0 | 0.0 | 0.00 | 0.00 | 0.00 | 98 | 1010.5 |
| 20260510074016 | 11 | 106 | 0.0 | 0.0 | 0.00 | 0.00 | 0.00 | 97 | 1010.6 |
| 20260510073513 | 11 | 106 | 0.0 | 0.0 | 0.00 | 0.00 | 0.00 | 98 | 1010.5 |
| 20260510073010 | 11 | 106 | 0.0 | 0.0 | 0.00 | 0.00 | 0.00 | 97 | 1010.8 |
| 20260510072506 | 11 | 106 | 0.0 | 0.0 | 0.00 | 0.00 | 0.00 | 97 | 1010.9 |
| 20260510072002 | 11 | 106 | 0.0 | 0.0 | 0.00 | 0.00 | 0.00 | 97 | 1010.8 |
| 20260510071458 | 11 | 82 | 0.0 | 3.2 | 0.00 | 0.00 | 0.00 | 97 | 1010.8 |
| 20260510070956 | 11 | 75 | 0.0 | 0.0 | 0.00 | 0.00 | 0.00 | 97 | 1010.9 |
| 20260510070453 | 11 | 66 | 0.0 | 1.6 | 0.00 | 0.00 | 0.00 | 97 | 1010.7 |
| 20260510065949 | 11 | 106 | 0.0 | 0.0 | 0.00 | 0.00 | 0.00 | 97 | 1010.9 |
| 20260510065446 | 11 | 106 | 0.0 | 0.0 | 0.00 | 0.00 | 0.00 | 96 | 1010.9 |
| 20260510064942 | 11 | 106 | 0.0 | 0.0 | 0.00 | 0.00 | 0.00 | 96 | 1010.7 |
| 20260510064440 | 11 | 106 | 0.0 | 0.0 | 0.00 | 0.00 | 0.00 | 96 | 1010.9 |
| 20260510063936 | 11 | 279 | 0.0 | 1.6 | 0.00 | 0.00 | 0.00 | 96 | 1010.7 |
| 20260510063432 | 11 | 270 | 0.0 | 0.0 | 0.00 | 0.00 | 0.00 | 96 | 1010.6 |
| 20260510062930 | 11 | 246 | 0.0 | 0.0 | 0.00 | 0.00 | 0.00 | 96 | 1010.5 |
| 20260510062425 | 12 | 246 | 0.0 | 0.0 | 0.00 | 0.00 | 0.00 | 96 | 1010.5 |
| 20260510061921 | 12 | 270 | 0.0 | 0.0 | 0.00 | 0.00 | 0.00 | 95 | 1010.5 |
| 20260510061418 | 12 | 270 | 0.0 | 0.0 | 0.00 | 0.00 | 0.00 | 95 | 1010.3 |
| 20260510060914 | 12 | 285 | 0.0 | 0.0 | 0.00 | 0.00 | 0.00 | 96 | 1010.7 |
| 20260510060410 | 12 | 285 | 0.0 | 0.0 | 0.00 | 0.00 | 0.00 | 96 | 1010.7 |
| 20260510055907 | 12 | 285 | 0.0 | 0.0 | 0.00 | 0.00 | 0.00 | 96 | 1010.5 |
| 20260510055402 | 12 | 270 | 0.0 | 0.0 | 0.00 | 0.00 | 0.00 | 96 | 1010.8 |
| 20260510054901 | 12 | 237 | 0.0 | 1.6 | 0.00 | 0.00 | 0.00 | 96 | 1010.8 |
| 20260510054356 | 12 | 270 | 0.0 | 0.0 | 0.00 | 0.00 | 0.00 | 95 | 1011.0 |
| 20260510053851 | 12 | 294 | 1.6 | 1.6 | 0.00 | 0.00 | 0.00 | 95 | 1011.0 |
| 20260510053347 | 12 | 270 | 0.0 | 0.0 | 0.00 | 0.00 | 0.00 | 95 | 1011.2 |
| 20260510052844 | 13 | 90 | 0.0 | 0.0 | 0.00 | 0.00 | 0.00 | 94 | 1011.2 |
| 20260510052339 | 13 | 90 | 0.0 | 0.0 | 0.00 | 0.00 | 0.00 | 93 | 1011.0 |
| 20260510051836 | 13 | 262 | 1.6 | 1.6 | 0.00 | 0.00 | 0.00 | 92 | 1010.8 |
| 20260510051332 | 13 | 36 | 3.2 | 4.8 | 0.00 | 0.00 | 0.00 | 92 | 1011.4 |
| 20260510050830 | 13 | 38 | 8.0 | 9.7 | 0.00 | 0.00 | 0.00 | 94 | 1011.4 |
| 20260510050326 | 12 | 109 | 4.8 | 8.0 | 0.00 | 0.00 | 0.00 | 96 | 1011.6 |
| 20260510045823 | 12 | 112 | 3.2 | 3.2 | 0.00 | 0.00 | 0.00 | 96 | 1010.5 |
| 20260510045320 | 12 | 270 | 0.0 | 0.0 | 0.00 | 0.00 | 0.00 | 96 | 1010.6 |
| 20260510044817 | 12 | 270 | 0.0 | 0.0 | 0.00 | 0.00 | 0.00 | 96 | 1010.3 |
| 20260510044314 | 12 | 270 | 0.0 | 0.0 | 0.00 | 0.00 | 0.00 | 96 | 1010.3 |
| 20260510043810 | 12 | 270 | 1.6 | 1.6 | 0.00 | 0.00 | 0.00 | 96 | 1009.9 |
| 20260510043306 | 12 | 270 | 0.0 | 0.0 | 0.00 | 0.00 | 0.00 | 96 | 1010.2 |
| 20260510042804 | 12 | 270 | 0.0 | 1.6 | 0.00 | 0.00 | 0.00 | 97 | 1010.2 |
| 20260510042259 | 12 | 270 | 0.0 | 0.0 | 0.00 | 0.00 | 0.00 | 97 | 1010.3 |
| 20260510041756 | 12 | 270 | 0.0 | 0.0 | 0.00 | 0.00 | 0.00 | 97 | 1010.2 |
| 20260510041254 | 12 | 246 | 0.0 | 1.6 | 0.00 | 0.00 | 0.00 | 97 | 1010.1 |
| 20260510040751 | 12 | 279 | 0.0 | 0.0 | 0.00 | 0.00 | 0.00 | 97 | 1009.9 |
| 20260510040242 | 12 | 279 | 0.0 | 0.0 | 0.00 | 0.00 | 0.00 | 97 | 1009.7 |
| 20260510035737 | 13 | 279 | 0.0 | 0.0 | 0.00 | 0.08 | 0.08 | 97 | 1009.9 |
| 20260510035233 | 13 | 254 | 0.0 | 0.0 | 0.00 | 0.08 | 0.08 | 97 | 1009.6 |
| 20260510034729 | 13 | 254 | 0.0 | 1.6 | 0.00 | 0.08 | 0.08 | 97 | 1009.9 |
| 20260510034228 | 13 | 270 | 0.0 | 0.0 | 0.00 | 0.08 | 0.08 | 97 | 1009.8 |
| 20260510033723 | 13 | 270 | 0.0 | 0.0 | 0.00 | 0.08 | 0.08 | 97 | 1009.9 |
| 20260510033221 | 13 | 270 | 0.0 | 0.0 | 0.00 | 0.08 | 0.08 | 97 | 1009.7 |
| 20260510032717 | 13 | 254 | 0.0 | 0.0 | 0.00 | 0.08 | 0.08 | 97 | 1009.9 |
| 20260510032213 | 13 | 254 | 0.0 | 0.0 | 0.00 | 0.08 | 0.08 | 97 | 1009.6 |
| 20260510031708 | 13 | 254 | 0.0 | 0.0 | 0.00 | 0.08 | 0.08 | 97 | 1009.7 |
| 20260510031205 | 13 | 254 | 0.0 | 1.6 | 0.00 | 0.08 | 0.08 | 97 | 1009.6 |
| 20260510030704 | 13 | 270 | 0.0 | 3.2 | 0.00 | 0.08 | 0.08 | 97 | 1009.7 |
| 20260510030202 | 13 | 270 | 0.0 | 0.0 | 0.00 | 0.08 | 0.08 | 97 | 1009.6 |
| 20260510025659 | 13 | 265 | 3.2 | 3.2 | 0.00 | 0.08 | 0.08 | 98 | 1009.5 |
| 20260510025156 | 13 | 262 | 0.0 | 3.2 | 0.00 | 0.08 | 0.08 | 98 | 1009.6 |
| 20260510024653 | 13 | 270 | 0.0 | 3.2 | 0.00 | 0.08 | 0.08 | 97 | 1009.5 |
| 20260510024149 | 13 | 0 | 0.0 | 3.2 | 0.00 | 0.08 | 0.08 | 97 | 1009.6 |
| 20260510023645 | 13 | 114 | 0.0 | 3.2 | 0.00 | 0.08 | 0.08 | 97 | 1009.7 |
| 20260510023143 | 13 | 8 | 0.0 | 4.8 | 0.00 | 0.08 | 0.08 | 97 | 1009.7 |
| 20260510022637 | 13 | 237 | 3.2 | 3.2 | 0.00 | 0.08 | 0.08 | 97 | 1009.5 |
| 20260510022132 | 13 | 229 | 0.0 | 3.2 | 0.05 | 0.08 | 0.08 | 96 | 1009.5 |
| 20260510021628 | 13 | 270 | 1.6 | 3.2 | 0.05 | 0.08 | 0.08 | 96 | 1009.5 |
| 20260510021126 | 14 | 233 | 3.2 | 3.2 | 0.05 | 0.08 | 0.08 | 95 | 1009.7 |
| 20260510020620 | 14 | 234 | 0.0 | 1.6 | 0.05 | 0.08 | 0.08 | 94 | 1009.4 |
| 20260510020115 | 14 | 98 | 0.0 | 3.2 | 0.05 | 0.05 | 0.05 | 92 | 1009.8 |
| 20260510015612 | 15 | 286 | 0.0 | 3.2 | 0.05 | 0.05 | 0.05 | 90 | 1009.6 |
| 20260510015108 | 15 | 353 | 0.0 | 0.0 | 0.00 | 0.05 | 0.05 | 85 | 1009.8 |
| 20260510014604 | 16 | 23 | 3.2 | 6.4 | 0.00 | 0.05 | 0.05 | 80 | 1009.9 |
| 20260510014102 | 16 | 180 | 0.0 | 8.0 | 0.00 | 0.05 | 0.05 | 77 | 1009.2 |
| 20260510013556 | 15 | 90 | 1.6 | 3.2 | 0.00 | 0.05 | 0.05 | 82 | 1009.0 |
| 20260510013052 | 16 | 17 | 3.2 | 3.2 | 0.00 | 0.05 | 0.05 | 78 | 1009.0 |
| 20260510012546 | 16 | 107 | 0.0 | 6.4 | 0.00 | 0.05 | 0.05 | 73 | 1009.1 |
| 20260510012043 | 17 | 90 | 0.0 | 4.8 | 0.00 | 0.05 | 0.05 | 69 | 1009.3 |
| 20260510011542 | 17 | 143 | 3.2 | 3.2 | 0.00 | 0.05 | 0.05 | 71 | 1008.5 |
| 20260510011038 | 16 | 106 | 1.6 | 1.6 | 0.00 | 0.05 | 0.05 | 72 | 1008.3 |
| 20260510010535 | 16 | 90 | 0.0 | 0.0 | 0.00 | 0.05 | 0.05 | 73 | 1007.9 |
| 20260510010032 | 16 | 90 | 0.0 | 0.0 | 0.00 | 0.05 | 0.05 | 72 | 1008.1 |
| 20260510005527 | 17 | 261 | 0.0 | 0.0 | 0.00 | 0.05 | 0.05 | 71 | 1007.7 |
| 20260510005026 | 17 | 261 | 0.0 | 0.0 | 0.00 | 0.05 | 0.05 | 71 | 1007.5 |
| 20260510004523 | 17 | 261 | 0.0 | 0.0 | 0.00 | 0.05 | 0.05 | 69 | 1007.5 |
| 20260510004021 | 17 | 23 | 0.0 | 1.6 | 0.00 | 0.05 | 0.05 | 70 | 1007.7 |
| 20260510003517 | 17 | 8 | 0.0 | 0.0 | 0.00 | 0.05 | 0.05 | 69 | 1007.9 |
| 20260510003013 | 17 | 90 | 0.0 | 1.6 | 0.00 | 0.05 | 0.05 | 68 | 1007.9 |
| 20260510002508 | 17 | 270 | 0.0 | 0.0 | 0.00 | 0.05 | 0.05 | 68 | 1007.8 |
| 20260510002005 | 17 | 279 | 0.0 | 0.0 | 0.00 | 0.05 | 0.05 | 68 | 1007.5 |
| 20260510001503 | 17 | 90 | 0.0 | 3.2 | 0.00 | 0.05 | 0.05 | 66 | 1007.9 |
| 20260510001001 | 17 | 106 | 0.0 | 3.2 | 0.00 | 0.05 | 0.05 | 67 | 1007.8 |
| 20260510000456 | 17 | 117 | 0.0 | 3.2 | 0.00 | 0.05 | 0.05 | 66 | 1007.5 |
| 20260509235953 | 17 | 234 | 0.0 | 0.0 | 0.00 | 0.05 | 0.05 | 66 | 1008.0 |
| 20260509235450 | 18 | 209 | 0.0 | 3.2 | 0.00 | 0.05 | 0.05 | 62 | 1007.8 |
| 20260509234946 | 18 | 32 | 0.0 | 3.2 | 0.00 | 0.05 | 0.05 | 66 | 1007.8 |
| 20260509234443 | 18 | 14 | 1.6 | 8.0 | 0.00 | 0.05 | 0.05 | 59 | 1007.7 |
| 20260509233941 | 18 | 81 | 0.0 | 3.2 | 0.00 | 0.05 | 0.05 | 62 | 1007.6 |
| 20260509233438 | 19 | 66 | 3.2 | 4.8 | 0.00 | 0.05 | 0.05 | 61 | 1007.5 |
| 20260509232934 | 19 | 99 | 0.0 | 6.4 | 0.00 | 0.05 | 0.05 | 58 | 1007.6 |
| 20260509232432 | 19 | 81 | 3.2 | 3.2 | 0.00 | 0.05 | 0.05 | 60 | 1007.4 |
| 20260509231927 | 20 | 123 | 3.2 | 3.2 | 0.00 | 0.05 | 0.05 | 64 | 1007.3 |
| 20260509231424 | 20 | 70 | 0.0 | 8.0 | 0.00 | 0.05 | 0.05 | 59 | 1007.3 |
| 20260509230922 | 20 | 61 | 4.8 | 4.8 | 0.00 | 0.05 | 0.05 | 63 | 1007.3 |
| 20260509230419 | 20 | 68 | 3.2 | 4.8 | 0.00 | 0.05 | 0.05 | 60 | 1007.2 |
| 20260509225915 | 20 | 41 | 3.2 | 8.0 | 0.00 | 0.05 | 0.05 | 61 | 1007.1 |
| 20260509225412 | 20 | 81 | 0.0 | 6.4 | 0.00 | 0.05 | 0.05 | 62 | 1007.1 |
| 20260509224908 | 20 | 90 | 3.2 | 6.4 | 0.00 | 0.05 | 0.05 | 58 | 1007.2 |
| 20260509224403 | 20 | 345 | 0.0 | 4.8 | 0.00 | 0.05 | 0.05 | 60 | 1007.1 |
| 20260509223901 | 21 | 81 | 0.0 | 4.8 | 0.00 | 0.05 | 0.05 | 59 | 1007.0 |
| 20260509223357 | 21 | 66 | 0.0 | 3.2 | 0.00 | 0.05 | 0.05 | 60 | 1007.5 |
| 20260509222855 | 21 | 68 | 0.0 | 4.8 | 0.00 | 0.05 | 0.05 | 59 | 1007.3 |
| 20260509222355 | 21 | 352 | 0.0 | 3.2 | 0.00 | 0.05 | 0.05 | 58 | 1007.5 |
| 20260509221850 | 21 | 32 | 0.0 | 3.2 | 0.00 | 0.05 | 0.05 | 54 | 1007.3 |
| 20260509221348 | 21 | 334 | 1.6 | 8.0 | 0.00 | 0.05 | 0.05 | 58 | 1007.3 |
| 20260509220843 | 21 | 345 | 0.0 | 3.2 | 0.00 | 0.05 | 0.05 | 55 | 1007.4 |
| 20260509220339 | 21 | 337 | 1.6 | 4.8 | 0.00 | 0.05 | 0.05 | 56 | 1007.5 |
| 20260509215835 | 21 | 121 | 0.0 | 6.4 | 0.00 | 0.05 | 0.05 | 57 | 1007.5 |
| 20260509215332 | 21 | 63 | 0.0 | 4.8 | 0.00 | 0.05 | 0.05 | 57 | 1007.6 |
| 20260509214829 | 21 | 265 | 0.0 | 3.2 | 0.00 | 0.05 | 0.05 | 56 | 1007.7 |
| 20260509214326 | 22 | 18 | 4.8 | 8.0 | 0.00 | 0.05 | 0.05 | 55 | 1007.6 |
| 20260509213823 | 22 | 103 | 0.0 | 3.2 | 0.00 | 0.05 | 0.05 | 52 | 1007.6 |
| 20260509213318 | 22 | 10 | 0.0 | 6.4 | 0.00 | 0.05 | 0.05 | 57 | 1007.4 |
| 20260509212816 | 21 | 0 | 0.0 | 4.8 | 0.00 | 0.05 | 0.05 | 55 | 1007.5 |
| 20260509212313 | 22 | 20 | 0.0 | 6.4 | 0.00 | 0.05 | 0.05 | 57 | 1007.4 |
| 20260509211809 | 22 | 0 | 0.0 | 4.8 | 0.00 | 0.05 | 0.05 | 55 | 1007.5 |
| 20260509211305 | 22 | 55 | 6.4 | 6.4 | 0.00 | 0.05 | 0.05 | 55 | 1007.5 |
| 20260509210802 | 21 | 34 | 3.2 | 8.0 | 0.00 | 0.05 | 0.05 | 57 | 1007.8 |
| 20260509210300 | 21 | 23 | 0.0 | 3.2 | 0.00 | 0.05 | 0.05 | 53 | 1007.8 |
| 20260509205759 | 22 | 53 | 3.2 | 6.4 | 0.00 | 0.05 | 0.05 | 56 | 1007.9 |
| 20260509205254 | 21 | 57 | 3.2 | 6.4 | 0.00 | 0.05 | 0.05 | 53 | 1007.8 |
| 20260509204750 | 21 | 86 | 3.2 | 6.4 | 0.00 | 0.05 | 0.05 | 57 | 1007.9 |
| 20260509204247 | 21 | 43 | 6.4 | 6.4 | 0.00 | 0.05 | 0.05 | 59 | 1007.8 |
| 20260509203743 | 21 | 67 | 0.0 | 9.7 | 0.00 | 0.05 | 0.05 | 56 | 1007.9 |
| 20260509203241 | 20 | 14 | 1.6 | 8.0 | 0.00 | 0.05 | 0.05 | 58 | 1007.9 |
| 20260509202736 | 21 | 7 | 1.6 | 12.9 | 0.00 | 0.05 | 0.05 | 61 | 1007.9 |
| 20260509202232 | 21 | 48 | 3.2 | 6.4 | 0.00 | 0.05 | 0.05 | 58 | 1008.0 |
| 20260509201727 | 21 | 352 | 0.0 | 3.2 | 0.00 | 0.05 | 0.05 | 56 | 1008.0 |
| 20260509201224 | 20 | 24 | 0.0 | 8.0 | 0.00 | 0.05 | 0.05 | 59 | 1008.0 |
| 20260509200720 | 20 | 346 | 0.0 | 3.2 | 0.00 | 0.05 | 0.05 | 58 | 1008.1 |
| 20260509200215 | 20 | 63 | 4.8 | 8.0 | 0.00 | 0.05 | 0.05 | 60 | 1008.2 |
| 20260509195711 | 20 | 16 | 0.0 | 3.2 | 0.00 | 0.05 | 0.05 | 58 | 1008.2 |
| 20260509195207 | 20 | 0 | 0.0 | 8.0 | 0.00 | 0.05 | 0.05 | 61 | 1008.6 |
| 20260509194701 | 20 | 49 | 4.8 | 4.8 | 0.00 | 0.05 | 0.05 | 62 | 1008.3 |
| 20260509194158 | 20 | 90 | 1.6 | 8.0 | 0.00 | 0.05 | 0.05 | 63 | 1008.6 |
| 20260509193654 | 18 | 47 | 4.8 | 8.0 | 0.00 | 0.05 | 0.05 | 65 | 1008.7 |
| 20260509193149 | 18 | 35 | 0.0 | 3.2 | 0.00 | 0.05 | 0.05 | 65 | 1008.7 |
| 20260509192646 | 19 | 15 | 0.0 | 3.2 | 0.00 | 0.05 | 0.05 | 61 | 1008.8 |
| 20260509192142 | 19 | 90 | 0.0 | 3.2 | 0.00 | 0.05 | 0.05 | 66 | 1009.0 |
| 20260509191642 | 20 | 60 | 0.0 | 3.2 | 0.00 | 0.05 | 0.05 | 64 | 1008.8 |
| 20260509191138 | 20 | 56 | 0.0 | 3.2 | 0.00 | 0.05 | 0.05 | 65 | 1008.7 |